Time;durP1;ratioP1;P1;durP2;ratioP2;P2;SDS_P1;SDS_P2;PMS_P1;PMS_P2;Temp;Humidity;BMP_temperature;BMP_pressure;BME280_temperature;BME280_humidity;BME280_pressure;Samples;Min_cycle;Max_cycle;Signal;HPM_P1;HPM_P2
2023/02/23 00:00:19;;;;;;;105.63;61.65;;;9.30;99.90;;;;;;5073491;28;20025;-64
2023/02/23 00:02:46;;;;;;;101.20;62.63;;;9.30;99.90;;;;;;5072574;28;20486;-64
2023/02/23 00:05:12;;;;;;;102.45;61.95;;;9.30;99.90;;;;;;5073418;28;20491;-64
2023/02/23 00:07:37;;;;;;;101.28;62.40;;;9.30;99.90;;;;;;5073542;28;20067;-63
2023/02/23 00:10:03;;;;;;;101.82;61.42;;;9.30;99.90;;;;;;5073343;28;20032;-64
2023/02/23 00:12:29;;;;;;;100.10;62.83;;;9.30;99.90;;;;;;5073297;28;20497;-64
2023/02/23 00:14:54;;;;;;;102.25;62.95;;;9.30;99.90;;;;;;5073241;28;20056;-64
2023/02/23 00:17:23;;;;;;;107.60;64.43;;;9.30;99.90;;;;;;5073545;28;20070;-64
2023/02/23 00:19:48;;;;;;;100.93;62.15;;;9.30;99.90;;;;;;5073365;28;20429;-64
2023/02/23 00:22:14;;;;;;;105.13;63.83;;;9.40;99.90;;;;;;5073156;28;20090;-64
2023/02/23 00:24:41;;;;;;;110.88;65.53;;;9.30;99.90;;;;;;5073168;28;20032;-64
2023/02/23 00:27:06;;;;;;;100.72;62.38;;;9.30;99.90;;;;;;5071968;28;20028;-63
2023/02/23 00:29:37;;;;;;;103.55;62.22;;;9.30;99.90;;;;;;5073186;28;20433;-64
2023/02/23 00:32:03;;;;;;;107.32;63.83;;;9.30;99.90;;;;;;5072967;28;20044;-64
2023/02/23 00:34:29;;;;;;;105.00;63.50;;;9.40;99.90;;;;;;5073075;28;20108;-63
2023/02/23 00:36:54;;;;;;;104.43;63.17;;;9.30;99.90;;;;;;5073017;28;20447;-64
2023/02/23 00:39:25;;;;;;;103.20;60.17;;;9.30;99.90;;;;;;5073202;28;20020;-63
2023/02/23 00:41:52;;;;;;;106.38;65.53;;;9.30;99.90;;;;;;5072131;28;20398;-64
2023/02/23 00:44:19;;;;;;;105.75;65.20;;;9.30;99.90;;;;;;5073133;28;20071;-64
2023/02/23 00:46:49;;;;;;;107.15;64.30;;;9.30;99.90;;;;;;5073220;28;20063;-63
2023/02/23 00:49:15;;;;;;;106.47;64.35;;;9.30;99.90;;;;;;5071784;28;20383;-64
2023/02/23 00:51:41;;;;;;;104.55;61.58;;;9.30;99.90;;;;;;5072820;28;20027;-64
2023/02/23 00:54:09;;;;;;;99.50;61.33;;;9.30;99.90;;;;;;5074589;28;20158;-64
2023/02/23 00:56:34;;;;;;;110.10;65.32;;;9.30;99.90;;;;;;5075992;28;20115;-64
2023/02/23 00:59:00;;;;;;;102.82;63.38;;;9.30;99.90;;;;;;5077144;28;20497;-64
2023/02/23 01:01:26;;;;;;;112.00;65.03;;;9.30;99.90;;;;;;5075882;28;20478;-63
2023/02/23 01:03:52;;;;;;;102.50;63.75;;;9.30;99.90;;;;;;5075639;28;20119;-65
2023/02/23 01:06:18;;;;;;;100.38;59.72;;;9.30;99.90;;;;;;5076784;28;20435;-64
2023/02/23 01:08:48;;;;;;;101.88;62.20;;;9.20;99.90;;;;;;5075497;28;20021;-64
2023/02/23 01:11:20;;;;;;;99.82;59.63;;;9.30;99.90;;;;;;5075632;28;20028;-64
2023/02/23 01:13:46;;;;;;;99.18;60.50;;;9.30;99.90;;;;;;5076830;28;20028;-63
2023/02/23 01:16:15;;;;;;;110.88;65.07;;;9.20;99.90;;;;;;5076730;28;20027;-64
2023/02/23 01:18:43;;;;;;;105.20;61.72;;;9.30;99.90;;;;;;5075079;28;20020;-64
2023/02/23 01:21:19;;;;;;;119.35;68.00;;;9.20;99.90;;;;;;5076437;28;20456;-63
2023/02/23 01:23:45;;;;;;;118.00;67.82;;;9.20;99.90;;;;;;5076255;28;20024;-63
2023/02/23 01:26:29;;;;;;;110.68;64.72;;;9.20;99.90;;;;;;5076260;28;20028;-63
2023/02/23 01:28:57;;;;;;;105.85;65.50;;;9.20;99.90;;;;;;5075199;28;20371;-64
2023/02/23 01:31:23;;;;;;;100.32;61.90;;;9.20;99.90;;;;;;5076115;28;20048;-64
2023/02/23 01:33:58;;;;;;;113.53;68.85;;;9.20;99.90;;;;;;5075172;28;20036;-64
2023/02/23 01:36:25;;;;;;;112.45;65.97;;;9.20;99.90;;;;;;5075398;28;20089;-64
2023/02/23 01:38:55;;;;;;;111.38;68.05;;;9.20;99.90;;;;;;5076086;28;20097;-63
2023/02/23 01:41:21;;;;;;;101.10;63.03;;;9.20;99.90;;;;;;5076311;28;20546;-64
2023/02/23 01:43:55;;;;;;;110.90;65.35;;;9.20;99.90;;;;;;5075949;28;20107;-64
2023/02/23 01:46:21;;;;;;;112.97;68.20;;;9.20;99.90;;;;;;5076105;28;20029;-63
2023/02/23 01:48:47;;;;;;;114.80;66.70;;;9.20;99.90;;;;;;5075870;28;20078;-64
2023/02/23 01:51:17;;;;;;;113.28;65.75;;;9.20;99.90;;;;;;5075848;28;20525;-63
2023/02/23 01:53:49;;;;;;;119.10;68.32;;;9.20;99.90;;;;;;5076011;28;20028;-64
2023/02/23 01:56:20;;;;;;;125.57;68.97;;;9.20;99.90;;;;;;5074883;28;20039;-63
2023/02/23 01:58:51;;;;;;;121.90;69.85;;;9.20;99.90;;;;;;5074809;28;20744;-63
2023/02/23 02:01:17;;;;;;;106.97;65.50;;;9.20;99.90;;;;;;5075690;28;20028;-64
2023/02/23 02:03:48;;;;;;;114.35;66.28;;;9.20;99.90;;;;;;5075473;28;20498;-63
2023/02/23 02:06:18;;;;;;;116.03;67.97;;;9.20;99.90;;;;;;5074355;28;20021;-64
2023/02/23 02:08:47;;;;;;;120.57;68.88;;;9.20;99.90;;;;;;5075597;28;20541;-63
2023/02/23 02:11:35;;;;;;;109.57;66.35;;;9.20;99.90;;;;;;5074482;28;20035;-64
2023/02/23 02:17:20;;;;;;;123.93;69.85;;;9.20;99.90;;;;;;5111208;27;20384;-64
2023/02/23 02:20:25;;;;;;;116.03;67.25;;;9.20;99.90;;;;;;5110943;28;20537;-64
2023/02/23 02:23:29;;;;;;;116.43;67.47;;;9.20;99.90;;;;;;5111195;28;20027;-64
2023/02/23 02:26:19;;;;;;;125.15;70.50;;;9.20;99.90;;;;;;5110764;28;20024;-64
2023/02/23 02:29:18;;;;;;;116.35;68.78;;;9.20;99.90;;;;;;5110873;28;20028;-64
2023/02/23 02:32:00;;;;;;;117.63;67.05;;;9.20;99.90;;;;;;5110826;28;20020;-63
2023/02/23 02:35:00;;;;;;;116.45;67.55;;;9.20;99.90;;;;;;5109769;28;20020;-64
2023/02/23 02:40:52;;;;;;;127.20;72.53;;;9.20;99.90;;;;;;5111194;27;20796;-63
2023/02/23 02:43:34;;;;;;;121.15;68.57;;;9.10;99.90;;;;;;5110472;28;20050;-63
2023/02/23 02:46:16;;;;;;;123.82;72.97;;;9.20;99.90;;;;;;5111056;28;20474;-63
2023/02/23 02:49:05;;;;;;;120.45;69.75;;;9.20;99.90;;;;;;5110029;28;20031;-63
2023/02/23 02:51:55;;;;;;;129.43;75.38;;;9.20;99.90;;;;;;5110023;28;20432;-63
2023/02/23 02:54:52;;;;;;;129.77;74.05;;;9.10;99.90;;;;;;5111073;28;20486;-63
2023/02/23 02:57:19;;;;;;;132.68;74.65;;;9.20;99.90;;;;;;5110728;28;20439;-63
2023/02/23 04:18:28;;;;;;;130.25;75.55;;;9.00;99.90;;;;;;5111334;28;20026;-63
2023/02/23 04:20:55;;;;;;;126.32;72.63;;;9.00;99.90;;;;;;5111091;28;20060;-63
2023/02/23 04:23:22;;;;;;;117.57;70.18;;;9.00;99.90;;;;;;5110043;28;20039;-63
2023/02/23 04:25:49;;;;;;;133.45;74.88;;;9.00;99.90;;;;;;5109691;28;20542;-63
2023/02/23 04:28:15;;;;;;;127.30;74.35;;;9.00;99.90;;;;;;5109935;28;20031;-63
2023/02/23 04:30:41;;;;;;;128.02;75.80;;;9.00;99.90;;;;;;5111008;28;20378;-63
2023/02/23 04:33:07;;;;;;;124.28;73.35;;;9.00;99.90;;;;;;5111071;28;20028;-64
2023/02/23 04:35:32;;;;;;;120.50;73.13;;;9.00;99.90;;;;;;5110660;28;20024;-63
2023/02/23 04:37:59;;;;;;;125.35;73.70;;;9.00;99.90;;;;;;5110618;27;20032;-63
2023/02/23 04:40:25;;;;;;;127.72;73.68;;;9.00;99.90;;;;;;5109757;28;20028;-63
2023/02/23 04:42:51;;;;;;;122.68;71.70;;;9.00;99.90;;;;;;5109476;28;20020;-63
2023/02/23 04:45:17;;;;;;;123.35;71.85;;;8.90;99.90;;;;;;5109588;28;20032;-63
2023/02/23 04:47:43;;;;;;;125.05;69.70;;;8.90;99.90;;;;;;5109345;28;20123;-63
2023/02/23 04:50:09;;;;;;;123.50;71.20;;;8.90;99.90;;;;;;5110484;28;20485;-63
2023/02/23 04:52:36;;;;;;;128.40;75.07;;;8.90;99.90;;;;;;5109466;28;20493;-63
2023/02/23 04:55:03;;;;;;;125.18;71.95;;;8.90;99.90;;;;;;5110552;28;20038;-63
2023/02/23 04:57:28;;;;;;;129.18;74.22;;;8.90;99.90;;;;;;5110404;28;20045;-64
2023/02/23 04:59:54;;;;;;;128.68;74.55;;;8.90;99.90;;;;;;5109235;28;20501;-63
2023/02/23 05:02:20;;;;;;;134.68;76.88;;;8.90;99.90;;;;;;5110489;28;20027;-63
2023/02/23 05:04:45;;;;;;;137.38;78.47;;;8.90;99.90;;;;;;5110199;28;20032;-63
2023/02/23 05:07:11;;;;;;;139.25;78.22;;;8.80;99.90;;;;;;5110411;28;20455;-63
2023/02/23 05:09:37;;;;;;;123.35;71.88;;;8.90;99.90;;;;;;5110212;28;20024;-63
2023/02/23 05:12:02;;;;;;;125.10;72.15;;;8.90;99.90;;;;;;5110107;28;20036;-63
2023/02/23 05:14:28;;;;;;;131.23;75.55;;;8.90;99.90;;;;;;5109866;28;20469;-64
2023/02/23 05:16:53;;;;;;;130.55;75.03;;;8.80;99.90;;;;;;5110040;28;20119;-63
2023/02/23 05:19:19;;;;;;;129.65;73.90;;;8.90;99.90;;;;;;5110104;28;20115;-63
2023/02/23 05:21:44;;;;;;;134.77;75.40;;;8.90;99.90;;;;;;5110122;28;20030;-63
2023/02/23 05:24:10;;;;;;;144.05;81.07;;;8.90;99.90;;;;;;5110021;28;20569;-63
2023/02/23 05:26:36;;;;;;;136.93;78.05;;;8.80;99.90;;;;;;5098673;28;20103;-63
2023/02/23 05:29:01;;;;;;;134.65;75.07;;;8.80;99.90;;;;;;5096478;28;20036;-64
2023/02/23 05:31:27;;;;;;;140.93;80.55;;;8.80;99.90;;;;;;5096092;28;20035;-64
2023/02/23 05:33:53;;;;;;;134.63;76.50;;;8.80;99.90;;;;;;5096233;28;20132;-63
2023/02/23 05:36:20;;;;;;;135.63;78.10;;;8.80;99.90;;;;;;5095974;28;20020;-63
2023/02/23 05:38:47;;;;;;;131.00;74.20;;;8.80;99.90;;;;;;5095104;28;20122;-63
2023/02/23 05:41:16;;;;;;;161.88;85.57;;;8.80;99.90;;;;;;5095036;28;20386;-63
2023/02/23 05:43:41;;;;;;;157.98;84.07;;;8.80;99.90;;;;;;5094725;28;20119;-63
2023/02/23 05:46:10;;;;;;;146.02;82.40;;;8.80;99.90;;;;;;5094657;28;20070;-63
2023/02/23 05:48:36;;;;;;;167.02;89.10;;;8.80;99.90;;;;;;5094571;28;20052;-63
2023/02/23 05:51:04;;;;;;;163.60;85.90;;;8.80;99.90;;;;;;5094667;28;20062;-63
2023/02/23 05:53:30;;;;;;;153.98;87.03;;;8.80;99.90;;;;;;5095639;28;20020;-63
2023/02/23 05:55:56;;;;;;;154.02;85.90;;;8.80;99.90;;;;;;5094545;28;20385;-63
2023/02/23 05:58:21;;;;;;;156.23;87.47;;;8.80;99.90;;;;;;5095387;28;20028;-63
2023/02/23 06:00:47;;;;;;;158.98;89.28;;;8.80;99.90;;;;;;5095455;28;20031;-63
2023/02/23 06:03:14;;;;;;;168.13;90.22;;;8.90;99.90;;;;;;5095551;28;20024;-63
2023/02/23 06:05:40;;;;;;;162.15;88.20;;;8.80;99.90;;;;;;5095440;28;20028;-63
2023/02/23 06:08:05;;;;;;;177.23;94.03;;;8.80;99.90;;;;;;5095339;28;20028;-64
2023/02/23 06:10:31;;;;;;;176.25;96.78;;;8.80;99.90;;;;;;5095591;28;20032;-63
2023/02/23 06:12:56;;;;;;;165.63;90.32;;;8.80;99.90;;;;;;5095464;28;20035;-63
2023/02/23 06:15:22;;;;;;;174.57;94.43;;;8.80;99.90;;;;;;5094997;28;20055;-63
2023/02/23 06:17:47;;;;;;;177.32;96.15;;;8.80;99.90;;;;;;5095214;28;20028;-63
2023/02/23 06:20:13;;;;;;;191.93;100.55;;;8.90;99.90;;;;;;5095152;28;20146;-63
2023/02/23 06:22:39;;;;;;;177.90;97.07;;;8.80;99.90;;;;;;5095408;28;20367;-63
2023/02/23 06:25:11;;;;;;;185.05;96.40;;;8.80;99.90;;;;;;5093905;28;20035;-63
2023/02/23 06:27:38;;;;;;;186.90;98.70;;;8.90;99.90;;;;;;5093948;28;20474;-63
2023/02/23 06:30:04;;;;;;;188.82;100.20;;;8.80;99.90;;;;;;5094123;28;20425;-63
2023/02/23 06:32:30;;;;;;;200.63;103.90;;;8.80;99.90;;;;;;5093824;28;20482;-63
2023/02/23 06:34:55;;;;;;;193.73;100.03;;;8.80;99.90;;;;;;5094876;28;20028;-63
2023/02/23 06:37:21;;;;;;;191.50;102.25;;;8.80;99.90;;;;;;5093817;28;20030;-63
2023/02/23 06:39:47;;;;;;;171.75;96.00;;;8.80;99.90;;;;;;5094884;28;20046;-63
2023/02/23 06:42:12;;;;;;;195.18;102.53;;;8.80;99.90;;;;;;5094769;28;20498;-63
2023/02/23 06:44:38;;;;;;;186.85;99.00;;;8.80;99.90;;;;;;5094690;28;20442;-63
2023/02/23 06:47:05;;;;;;;178.48;94.05;;;8.80;99.90;;;;;;5094871;28;20055;-63
2023/02/23 06:49:30;;;;;;;187.48;99.68;;;8.80;99.90;;;;;;5094810;28;20138;-63
2023/02/23 06:51:57;;;;;;;178.70;96.38;;;8.80;99.90;;;;;;5094685;28;20543;-63
2023/02/23 06:54:23;;;;;;;189.48;98.13;;;8.80;99.90;;;;;;5094751;28;20028;-63
2023/02/23 06:56:49;;;;;;;193.68;100.65;;;8.80;99.90;;;;;;5094781;28;20385;-63
2023/02/23 06:59:14;;;;;;;195.82;99.50;;;8.80;99.90;;;;;;5094494;28;20024;-63
2023/02/23 07:01:43;;;;;;;199.23;103.20;;;8.80;99.90;;;;;;5094320;28;20401;-63
2023/02/23 07:04:10;;;;;;;196.18;99.78;;;8.80;99.90;;;;;;5088567;28;20029;-63
2023/02/23 07:06:36;;;;;;;208.50;103.45;;;8.80;99.90;;;;;;5091768;28;20362;-63
2023/02/23 07:09:03;;;;;;;199.80;102.07;;;8.80;99.90;;;;;;5091409;28;20059;-63
2023/02/23 07:11:28;;;;;;;191.57;98.07;;;8.80;99.90;;;;;;5079572;28;20143;-63
2023/02/23 07:13:57;;;;;;;195.50;100.15;;;8.80;99.90;;;;;;5076788;28;20053;-63
2023/02/23 07:16:23;;;;;;;202.15;103.80;;;8.80;99.90;;;;;;5090736;28;20369;-63
2023/02/23 07:18:48;;;;;;;191.95;100.80;;;8.80;99.90;;;;;;5091353;28;20119;-63
2023/02/23 07:21:14;;;;;;;212.15;103.60;;;8.80;99.90;;;;;;5093041;28;20164;-65
2023/02/23 07:23:39;;;;;;;200.93;101.97;;;8.80;99.90;;;;;;5096830;28;20444;-64
2023/02/23 07:26:05;;;;;;;195.85;100.95;;;8.80;99.90;;;;;;5091447;28;20086;-64
2023/02/23 07:28:30;;;;;;;204.60;101.38;;;8.80;99.90;;;;;;5073906;28;20095;-66
2023/02/23 07:30:57;;;;;;;201.60;102.55;;;8.80;99.90;;;;;;5085754;28;20028;-65
2023/02/23 07:33:23;;;;;;;198.07;100.50;;;8.80;99.90;;;;;;5082960;28;20466;-66
2023/02/23 07:35:50;;;;;;;197.45;100.32;;;8.80;99.90;;;;;;5090163;28;20047;-65
2023/02/23 07:38:16;;;;;;;194.50;98.50;;;8.90;99.90;;;;;;5093834;28;20042;-65
2023/02/23 07:40:41;;;;;;;197.05;98.38;;;8.90;99.90;;;;;;5089814;28;20032;-65
2023/02/23 07:43:07;;;;;;;196.10;100.70;;;8.90;99.90;;;;;;5091390;28;20032;-65
2023/02/23 07:45:32;;;;;;;203.07;102.70;;;8.90;99.90;;;;;;5092043;28;20030;-65
2023/02/23 07:47:58;;;;;;;210.23;102.60;;;8.80;99.90;;;;;;5081135;28;20099;-65
2023/02/23 07:50:25;;;;;;;206.43;101.63;;;8.90;99.90;;;;;;5088839;28;20087;-64
2023/02/23 07:52:51;;;;;;;208.60;104.63;;;8.90;99.90;;;;;;5092186;28;20028;-65
2023/02/23 07:55:16;;;;;;;208.18;104.15;;;8.90;99.90;;;;;;5092899;28;20111;-65
2023/02/23 07:57:42;;;;;;;211.73;103.15;;;8.90;99.90;;;;;;5083519;28;20469;-66
2023/02/23 08:00:09;;;;;;;206.32;101.10;;;8.90;99.90;;;;;;5093047;28;20020;-65
2023/02/23 08:02:34;;;;;;;212.93;99.95;;;8.80;99.90;;;;;;5089835;28;20398;-65
2023/02/23 08:05:00;;;;;;;209.95;102.90;;;8.80;99.90;;;;;;5092842;28;20032;-65
2023/02/23 08:07:25;;;;;;;208.30;101.28;;;8.90;99.90;;;;;;5092319;28;20478;-66
2023/02/23 08:09:52;;;;;;;216.00;102.75;;;8.90;99.90;;;;;;5090679;28;20035;-66
2023/02/23 08:12:18;;;;;;;214.75;102.40;;;8.90;99.90;;;;;;5092331;28;20024;-64
2023/02/23 08:14:44;;;;;;;221.55;103.95;;;8.90;99.90;;;;;;5090310;28;20072;-64
2023/02/23 08:17:10;;;;;;;206.63;100.20;;;8.90;99.90;;;;;;5085619;28;20148;-65
2023/02/23 08:19:36;;;;;;;214.35;99.85;;;8.90;99.90;;;;;;5078539;28;20106;-65
2023/02/23 08:22:03;;;;;;;208.50;96.53;;;8.90;99.90;;;;;;5090072;28;20468;-64
2023/02/23 08:24:29;;;;;;;209.13;97.97;;;8.90;99.90;;;;;;5113184;28;20106;-65
2023/02/23 08:26:55;;;;;;;206.48;97.97;;;9.00;99.90;;;;;;5113362;28;20036;-64
2023/02/23 08:29:21;;;;;;;211.88;100.40;;;9.00;99.90;;;;;;5112917;28;20385;-66
2023/02/23 08:31:46;;;;;;;213.68;101.03;;;8.90;99.90;;;;;;5104634;28;20036;-65
2023/02/23 08:34:13;;;;;;;223.98;100.10;;;8.90;99.90;;;;;;5091366;28;20119;-64
2023/02/23 08:36:39;;;;;;;231.25;102.55;;;8.90;99.90;;;;;;5078110;28;20031;-65
2023/02/23 08:39:06;;;;;;;222.35;100.78;;;8.90;99.90;;;;;;5089310;28;20024;-66
2023/02/23 08:41:32;;;;;;;233.25;104.18;;;8.90;99.90;;;;;;5077898;28;20458;-65
2023/02/23 08:43:58;;;;;;;226.38;100.68;;;8.90;99.90;;;;;;5079306;28;20103;-65
2023/02/23 08:46:23;;;;;;;224.68;100.97;;;8.90;99.90;;;;;;5082617;28;20115;-64
2023/02/23 08:48:49;;;;;;;223.57;98.82;;;8.90;99.90;;;;;;5079907;28;20024;-65
2023/02/23 08:51:15;;;;;;;229.43;100.78;;;8.90;99.90;;;;;;5073408;28;20036;-66
2023/02/23 08:53:40;;;;;;;242.10;104.78;;;8.90;99.90;;;;;;5087697;28;20038;-63
2023/02/23 08:56:07;;;;;;;235.25;102.90;;;8.90;99.90;;;;;;5090190;28;20358;-63
2023/02/23 08:58:34;;;;;;;232.73;103.32;;;8.90;99.90;;;;;;5088679;28;20027;-63
2023/02/23 09:01:00;;;;;;;240.15;104.03;;;9.00;99.90;;;;;;5101482;28;20510;-62
2023/02/23 09:03:29;;;;;;;240.80;101.45;;;9.00;99.90;;;;;;5096263;28;20474;-62
2023/02/23 09:05:56;;;;;;;227.88;103.20;;;8.90;99.90;;;;;;5076402;28;20036;-62
2023/02/23 09:08:22;;;;;;;224.45;104.82;;;9.00;99.90;;;;;;5091344;28;20489;-62
2023/02/23 09:10:47;;;;;;;230.68;103.07;;;9.00;99.90;;;;;;5082158;28;20060;-62
2023/02/23 09:13:14;;;;;;;221.93;101.05;;;9.00;99.90;;;;;;5081332;28;20070;-62
2023/02/23 09:15:41;;;;;;;231.40;104.65;;;9.10;99.90;;;;;;5093469;28;20048;-62
2023/02/23 09:18:09;;;;;;;225.02;103.43;;;9.00;99.90;;;;;;5081829;28;20032;-63
2023/02/23 09:20:35;;;;;;;218.52;100.88;;;9.00;99.90;;;;;;5076145;28;20115;-62
2023/02/23 09:23:00;;;;;;;225.65;102.40;;;8.90;99.90;;;;;;5088512;28;20115;-63
2023/02/23 09:25:28;;;;;;;229.32;103.20;;;9.00;99.90;;;;;;5087356;28;20028;-62
2023/02/23 09:27:58;;;;;;;230.73;103.97;;;9.00;99.90;;;;;;5091658;28;20027;-62
2023/02/23 09:30:25;;;;;;;217.80;102.53;;;9.00;99.90;;;;;;5076908;28;20029;-62
2023/02/23 09:32:51;;;;;;;221.05;101.32;;;9.00;99.90;;;;;;5081530;28;20035;-63
2023/02/23 09:35:18;;;;;;;212.63;97.28;;;9.00;99.90;;;;;;5092447;28;20033;-62
2023/02/23 09:37:47;;;;;;;223.68;99.43;;;9.10;99.90;;;;;;5086122;28;20031;-63
2023/02/23 09:40:17;;;;;;;218.13;100.35;;;9.00;99.90;;;;;;5084306;28;20531;-62
2023/02/23 09:42:59;;;;;;;217.35;98.80;;;9.00;99.90;;;;;;5085274;28;20024;-63
2023/02/23 09:48:25;;;;;;;223.02;100.03;;;9.00;99.90;;;;;;5064897;28;20472;-62
2023/02/23 09:50:53;;;;;;;218.98;98.50;;;9.00;99.90;;;;;;5058890;28;20434;-63
2023/02/23 09:53:41;;;;;;;206.13;95.53;;;9.10;99.90;;;;;;5057796;28;20119;-62
2023/02/23 09:56:21;;;;;;;195.90;93.93;;;9.10;99.90;;;;;;5052535;28;20029;-62
2023/02/23 09:58:49;;;;;;;201.32;91.03;;;9.20;99.90;;;;;;5048609;28;20021;-63
2023/02/23 10:01:43;;;;;;;199.57;91.72;;;9.20;99.90;;;;;;5055719;28;20060;-62
2023/02/23 10:04:37;;;;;;;183.45;86.90;;;9.30;99.90;;;;;;5048492;28;20044;-63
2023/02/23 10:07:33;;;;;;;196.15;93.10;;;9.30;99.90;;;;;;5059346;28;20116;-63
2023/02/23 10:10:13;;;;;;;204.73;92.68;;;9.20;99.90;;;;;;5050478;28;20484;-63
2023/02/23 10:12:52;;;;;;;207.48;90.43;;;9.20;99.90;;;;;;5041946;28;20033;-66
2023/02/23 10:15:36;;;;;;;201.00;92.28;;;9.30;99.90;;;;;;5048035;28;20356;-62
2023/02/23 10:20:58;;;;;;;208.65;89.82;;;9.30;99.90;;;;;;5074170;28;20431;-65
2023/02/23 10:23:34;;;;;;;196.23;87.43;;;9.30;99.90;;;;;;5034892;28;20022;-65
2023/02/23 10:26:01;;;;;;;192.60;85.93;;;9.50;99.90;;;;;;5051399;28;20040;-64
2023/02/23 10:28:32;;;;;;;184.60;84.85;;;9.50;99.90;;;;;;5039369;28;20428;-65
2023/02/23 10:30:59;;;;;;;176.60;80.72;;;9.50;99.90;;;;;;5036006;28;20112;-65
2023/02/23 10:33:33;;;;;;;174.63;83.20;;;9.60;99.90;;;;;;5040561;28;20056;-64
2023/02/23 10:36:12;;;;;;;177.07;82.00;;;9.60;99.90;;;;;;5033002;28;20034;-63
2023/02/23 10:38:38;;;;;;;172.02;80.95;;;9.70;99.90;;;;;;5041212;28;20407;-64
2023/02/23 10:41:04;;;;;;;163.88;77.20;;;9.70;99.90;;;;;;5043681;28;20052;-63
2023/02/23 10:43:30;;;;;;;157.43;79.80;;;9.60;99.90;;;;;;5037551;28;20172;-64
2023/02/23 10:45:55;;;;;;;164.82;77.50;;;9.60;99.90;;;;;;5047856;28;20025;-63
2023/02/23 10:48:25;;;;;;;160.32;75.68;;;9.50;99.90;;;;;;5046031;28;20029;-64
2023/02/23 10:50:53;;;;;;;161.82;78.45;;;9.50;99.90;;;;;;5038196;28;20029;-64
2023/02/23 10:53:25;;;;;;;162.18;76.07;;;9.40;99.90;;;;;;5044533;28;20059;-63
2023/02/23 10:56:12;;;;;;;165.05;77.88;;;9.30;99.90;;;;;;5043909;28;20028;-64
2023/02/23 10:58:50;;;;;;;178.35;79.85;;;9.30;99.90;;;;;;5029382;28;20029;-63
2023/02/23 11:01:40;;;;;;;165.45;77.35;;;9.30;99.90;;;;;;5043233;28;20021;-63
2023/02/23 11:04:27;;;;;;;164.02;74.00;;;9.30;99.90;;;;;;5043980;28;20104;-63
2023/02/23 11:07:15;;;;;;;157.05;73.72;;;9.40;99.90;;;;;;5036274;28;20032;-63
2023/02/23 11:09:41;;;;;;;169.77;73.38;;;9.40;99.90;;;;;;5035742;28;20029;-64
2023/02/23 11:12:41;;;;;;;147.00;70.40;;;9.50;99.90;;;;;;5045370;28;20037;-68
2023/02/23 11:15:28;;;;;;;150.30;66.63;;;9.60;99.90;;;;;;5030157;28;20045;-65
2023/02/23 11:17:56;;;;;;;148.45;66.72;;;9.70;99.90;;;;;;5029802;28;20096;-64
2023/02/23 11:20:30;;;;;;;138.82;64.47;;;9.80;99.90;;;;;;5031358;28;20103;-64
2023/02/23 11:22:56;;;;;;;145.65;64.57;;;9.90;99.90;;;;;;5038878;28;20084;-64
2023/02/23 11:25:28;;;;;;;142.23;63.90;;;9.90;99.90;;;;;;5027802;28;20033;-64
2023/02/23 11:27:55;;;;;;;138.75;63.25;;;9.90;99.90;;;;;;5031831;28;20024;-63
2023/02/23 11:30:24;;;;;;;136.63;62.75;;;10.10;99.90;;;;;;5039770;28;20052;-63
2023/02/23 11:32:53;;;;;;;127.25;61.05;;;10.30;99.90;;;;;;5037682;28;20471;-64
2023/02/23 11:37:57;;;;;;;127.38;58.47;;;10.50;99.90;;;;;;5090259;28;20101;-64
2023/02/23 11:40:33;;;;;;;116.20;55.10;;;10.50;99.90;;;;;;5089360;28;20070;-64
2023/02/23 11:43:08;;;;;;;118.60;54.92;;;10.40;99.90;;;;;;5088863;28;20020;-64
2023/02/23 11:48:32;;;;;;;104.57;52.33;;;10.40;99.90;;;;;;5110434;27;20367;-64
2023/02/23 11:50:58;;;;;;;105.20;51.58;;;10.50;99.90;;;;;;5091057;27;20038;-64
2023/02/23 11:53:31;;;;;;;102.90;49.67;;;10.30;99.90;;;;;;5090405;28;20024;-63
2023/02/23 11:56:06;;;;;;;103.40;50.38;;;10.10;99.90;;;;;;5090688;28;20020;-64
2023/02/23 11:58:54;;;;;;;106.20;51.58;;;10.00;99.90;;;;;;5090135;28;20059;-64
2023/02/23 12:01:33;;;;;;;106.88;50.53;;;9.90;99.90;;;;;;5089756;28;20478;-63
2023/02/23 12:03:58;;;;;;;109.55;51.03;;;9.60;99.90;;;;;;5089318;28;20103;-64
2023/02/23 12:09:22;;;;;;;115.10;50.05;;;9.40;99.90;;;;;;5111056;27;20296;-63
2023/02/23 12:11:56;;;;;;;110.88;48.55;;;9.30;99.90;;;;;;5109817;28;20053;-64
2023/02/23 12:17:20;;;;;;;111.25;47.97;;;9.30;99.90;;;;;;5104025;27;20898;-64
2023/02/23 12:19:54;;;;;;;95.90;44.70;;;9.10;99.90;;;;;;5086259;28;20036;-64
2023/02/23 12:22:24;;;;;;;93.93;43.40;;;9.10;99.90;;;;;;5107430;28;20034;-64
2023/02/23 12:27:41;;;;;;;84.43;39.00;;;9.00;99.90;;;;;;5110073;27;1177180;-64
2023/02/23 12:30:21;;;;;;;92.90;40.00;;;8.90;99.90;;;;;;5130456;28;20438;-65
2023/02/23 12:32:55;;;;;;;88.85;38.13;;;8.80;99.90;;;;;;5131583;27;20138;-64
2023/02/23 12:35:46;;;;;;;88.35;38.03;;;8.80;99.90;;;;;;5131033;27;20034;-64
2023/02/23 12:38:32;;;;;;;83.30;36.78;;;8.80;99.90;;;;;;5130763;28;20439;-65
2023/02/23 12:41:05;;;;;;;90.20;40.53;;;8.80;99.90;;;;;;5131489;27;20446;-65
2023/02/23 12:43:48;;;;;;;90.10;38.60;;;8.90;99.90;;;;;;5131631;27;20422;-64
2023/02/23 12:46:20;;;;;;;81.90;35.17;;;8.90;99.90;;;;;;5131258;27;20193;-64
2023/02/23 12:49:12;;;;;;;80.20;33.70;;;8.90;99.90;;;;;;5129532;28;20823;-63
2023/02/23 12:51:43;;;;;;;83.07;34.63;;;8.90;99.90;;;;;;5110811;28;20478;-64
2023/02/23 12:54:11;;;;;;;75.95;32.75;;;8.90;99.90;;;;;;5130385;28;20023;-64
2023/02/23 12:57:18;;;;;;;74.13;32.17;;;8.90;99.90;;;;;;5131051;27;20389;-64
2023/02/23 13:02:51;;;;;;;70.78;30.98;;;8.70;99.90;;;;;;5110175;27;20916;-64
2023/02/23 13:05:31;;;;;;;78.78;32.63;;;8.70;99.90;;;;;;5110379;28;20028;-63
2023/02/23 13:08:22;;;;;;;76.63;30.27;;;8.70;99.90;;;;;;5110140;28;20126;-63
2023/02/23 13:10:58;;;;;;;74.80;30.75;;;8.60;99.90;;;;;;5106859;28;20389;-63
2023/02/23 13:13:35;;;;;;;76.13;32.30;;;8.60;99.90;;;;;;5110395;28;20120;-63
2023/02/23 13:16:24;;;;;;;77.80;32.50;;;8.60;99.90;;;;;;5110156;28;20024;-63
2023/02/23 13:19:02;;;;;;;80.15;32.42;;;8.60;99.90;;;;;;5109618;28;20545;-62
2023/02/23 13:21:40;;;;;;;72.07;31.48;;;8.60;99.90;;;;;;5110076;28;20039;-64
2023/02/23 13:24:17;;;;;;;79.05;31.98;;;8.50;99.90;;;;;;5108086;28;20024;-63
2023/02/23 13:26:54;;;;;;;77.00;32.83;;;8.40;99.90;;;;;;5109202;28;20521;-63
2023/02/23 13:29:40;;;;;;;86.57;35.55;;;8.40;99.90;;;;;;5109347;28;20362;-63
2023/02/23 13:32:13;;;;;;;78.05;33.42;;;8.50;99.90;;;;;;5110122;27;20489;-63
2023/02/23 13:34:44;;;;;;;80.45;34.05;;;8.50;99.90;;;;;;5110445;28;20032;-63
2023/02/23 13:37:12;;;;;;;82.28;33.78;;;8.50;99.90;;;;;;5108949;28;20464;-63
2023/02/23 13:39:47;;;;;;;88.57;35.15;;;8.50;99.90;;;;;;5109695;28;20389;-63
2023/02/23 13:42:43;;;;;;;88.82;35.92;;;8.50;99.90;;;;;;5109464;28;20081;-64
2023/02/23 13:45:48;;;;;;;87.95;36.83;;;8.50;99.90;;;;;;5109577;28;20027;-65
2023/02/23 13:48:42;;;;;;;80.38;34.00;;;8.50;99.90;;;;;;5109563;28;20066;-64
2023/02/23 13:51:18;;;;;;;84.90;33.53;;;8.50;99.90;;;;;;5109794;28;20059;-63
2023/02/23 13:53:56;;;;;;;80.90;33.17;;;8.60;99.90;;;;;;5109594;28;20435;-63
2023/02/23 13:56:25;;;;;;;81.70;34.22;;;8.50;99.90;;;;;;5108911;28;20111;-63
2023/02/23 13:58:57;;;;;;;84.05;36.40;;;8.50;99.90;;;;;;5108430;28;20507;-63
2023/02/23 14:01:30;;;;;;;80.05;33.33;;;8.50;99.90;;;;;;5107871;28;20044;-63
2023/02/23 14:04:00;;;;;;;;;;;8.40;99.90;;;;;;5108785;28;20093;-63
2023/02/23 14:06:29;;;;;;;79.90;32.20;;;8.50;99.90;;;;;;5109677;28;20007;-64
2023/02/23 14:09:17;;;;;;;78.13;31.67;;;8.40;99.90;;;;;;5109221;28;20023;-63
2023/02/23 14:11:46;;;;;;;71.40;30.15;;;8.50;99.90;;;;;;5108351;28;20036;-64
2023/02/23 14:14:34;;;;;;;65.35;28.67;;;8.40;99.90;;;;;;5094581;28;20114;-64
2023/02/23 14:23:17;;;;;;;68.68;30.17;;;8.40;99.90;;;;;;5110821;27;20388;-64
2023/02/23 14:28:26;;;;;;;64.85;27.70;;;8.30;99.90;;;;;;5110803;27;20594;-64
2023/02/23 14:39:03;;;;;;;67.63;27.55;;;8.20;99.90;;;;;;5090085;28;20669;-63
2023/02/23 14:41:51;;;;;;;67.40;29.23;;;8.10;99.90;;;;;;5081002;28;20451;-63
2023/02/23 14:44:23;;;;;;;67.63;28.75;;;8.10;99.90;;;;;;5070202;28;20466;-62
2023/02/23 14:47:02;;;;;;;70.05;29.00;;;8.10;99.90;;;;;;5084037;28;20546;-63
2023/02/23 14:49:34;;;;;;;73.85;30.92;;;8.00;99.90;;;;;;5083582;28;20101;-63